createdAt,value
2018-08-22T00:00:08.706Z,0
2018-08-22T00:01:18.792Z,0
2018-08-22T00:02:28.880Z,0
2018-08-22T00:03:38.713Z,0
2018-08-22T00:04:48.518Z,0
2018-08-22T00:05:58.588Z,0
2018-08-22T00:07:08.656Z,0
2018-08-22T00:08:18.734Z,0
2018-08-22T00:09:28.827Z,0
2018-08-22T00:10:38.908Z,0
2018-08-22T00:11:48.993Z,0
2018-08-22T00:12:59.076Z,0
2018-08-22T00:14:08.893Z,0
2018-08-22T00:15:19.892Z,0
2018-08-22T00:16:30.134Z,0
2018-08-22T00:17:40.217Z,0
2018-08-22T00:18:50.041Z,0
2018-08-22T00:20:00.115Z,0
2018-08-22T00:21:09.937Z,0
2018-08-22T00:22:20.089Z,0
2018-08-22T00:23:30.175Z,0
2018-08-22T00:24:40.265Z,0
2018-08-22T00:25:50.090Z,0
2018-08-22T00:27:00.901Z,0
2018-08-22T00:28:10.992Z,0
2018-08-22T00:29:21.784Z,0
2018-08-22T00:30:31.880Z,0
2018-08-22T00:31:41.715Z,0
2018-08-22T00:32:51.804Z,0
2018-08-22T00:34:01.949Z,0
2018-08-22T00:35:11.767Z,0
2018-08-22T00:36:21.848Z,0
2018-08-22T00:37:31.932Z,0
2018-08-22T00:38:42.003Z,0
2018-08-22T00:39:51.800Z,0
2018-08-22T00:41:01.873Z,0
2018-08-22T00:42:11.933Z,0
2018-08-22T00:43:22.010Z,0
2018-08-22T00:44:32.092Z,0
2018-08-22T00:45:41.894Z,0
2018-08-22T00:46:51.970Z,0
2018-08-22T00:48:02.037Z,0
2018-08-22T00:49:11.849Z,0
2018-08-22T00:50:21.681Z,0
2018-08-22T00:51:31.760Z,0
2018-08-22T00:52:41.834Z,0
2018-08-22T00:53:51.655Z,0
2018-08-22T00:55:01.726Z,0
2018-08-22T00:56:11.614Z,0
2018-08-22T00:57:21.696Z,0
2018-08-22T00:58:31.776Z,0
2018-08-22T00:59:41.600Z,0
2018-08-22T01:00:51.159Z,0
2018-08-22T01:02:00.962Z,0
2018-08-22T01:03:10.512Z,0
2018-08-22T01:04:20.566Z,0
2018-08-22T01:05:30.428Z,0
2018-08-22T01:06:40.237Z,0
2018-08-22T01:07:50.317Z,0
2018-08-22T01:09:00.399Z,0
2018-08-22T01:10:10.215Z,0
2018-08-22T01:11:20.025Z,0
2018-08-22T01:12:30.108Z,0
2018-08-22T01:13:40.187Z,0
2018-08-22T01:14:50.276Z,0
2018-08-22T01:16:00.106Z,0
2018-08-22T01:17:10.193Z,0
2018-08-22T01:18:20.010Z,0
2018-08-22T01:19:29.833Z,0
2018-08-22T01:20:39.467Z,0
2018-08-22T01:21:49.277Z,0
2018-08-22T01:22:59.356Z,0
2018-08-22T01:24:09.442Z,0
2018-08-22T01:25:19.253Z,0
2018-08-22T01:26:29.338Z,0
2018-08-22T01:27:39.417Z,0
2018-08-22T01:28:49.020Z,0
2018-08-22T01:29:58.836Z,0
2018-08-22T01:31:08.913Z,0
2018-08-22T01:32:19.004Z,0
2018-08-22T01:33:28.825Z,0
2018-08-22T01:34:38.903Z,0
2018-08-22T01:35:48.454Z,0
2018-08-22T01:36:58.546Z,0
2018-08-22T01:38:08.676Z,0
2018-08-22T01:39:18.494Z,0
2018-08-22T01:40:28.599Z,0
2018-08-22T01:41:38.420Z,0
2018-08-22T01:42:47.973Z,0
2018-08-22T01:43:57.803Z,0
2018-08-22T01:45:07.634Z,0
2018-08-22T01:46:17.736Z,0
2018-08-22T01:47:27.559Z,0
2018-08-22T01:48:37.660Z,0
2018-08-22T01:49:47.801Z,0
2018-08-22T01:50:57.889Z,0
2018-08-22T01:52:07.190Z,0
2018-08-22T01:53:17.269Z,0
2018-08-22T01:54:27.354Z,0
2018-08-22T01:55:37.439Z,0
2018-08-22T01:56:47.506Z,0
2018-08-22T01:57:57.340Z,0
2018-08-22T01:59:07.734Z,0
2018-08-22T02:00:17.553Z,0
2018-08-22T02:01:27.677Z,0
2018-08-22T02:02:37.763Z,0
2018-08-22T02:03:47.839Z,0
2018-08-22T02:04:57.918Z,0
2018-08-22T02:06:07.988Z,0
2018-08-22T02:07:17.856Z,0
2018-08-22T02:08:27.926Z,0
2018-08-22T02:09:38.014Z,0
2018-08-22T02:10:48.093Z,0
2018-08-22T02:11:58.175Z,0
2018-08-22T02:13:07.991Z,0
2018-08-22T02:14:18.069Z,0
2018-08-22T02:15:28.151Z,0
2018-08-22T02:16:38.474Z,0
2018-08-22T02:17:48.539Z,0
2018-08-22T02:18:58.666Z,0
2018-08-22T02:20:08.724Z,0
2018-08-22T02:21:18.789Z,0
2018-08-22T02:22:28.879Z,0
2018-08-22T02:23:38.974Z,0
2018-08-22T02:24:48.841Z,0
2018-08-22T02:25:58.929Z,0
2018-08-22T02:27:09.007Z,0
2018-08-22T02:28:18.830Z,0
2018-08-22T02:29:28.652Z,0
2018-08-22T02:30:38.730Z,0
2018-08-22T02:31:48.850Z,0
2018-08-22T02:32:58.919Z,0
2018-08-22T02:34:09.008Z,0
2018-08-22T02:35:19.082Z,0
2018-08-22T02:36:29.219Z,0
2018-08-22T02:37:39.294Z,0
2018-08-22T02:38:49.376Z,0
2018-08-22T02:39:59.466Z,0
2018-08-22T02:41:09.546Z,0
2018-08-22T02:42:19.674Z,0
2018-08-22T02:43:29.776Z,0
2018-08-22T02:44:39.870Z,0
2018-08-22T02:45:49.947Z,0
2018-08-22T02:47:00.021Z,0
2018-08-22T02:48:10.194Z,0
2018-08-22T02:49:20.011Z,0
2018-08-22T02:50:29.837Z,0
2018-08-22T02:51:39.921Z,0
2018-08-22T02:52:49.764Z,0
2018-08-22T02:53:59.835Z,0
2018-08-22T02:55:09.899Z,0
2018-08-22T02:56:19.977Z,0
2018-08-22T02:57:30.069Z,0
2018-08-22T02:58:40.164Z,0
2018-08-22T02:59:50.321Z,0
2018-08-22T03:01:00.123Z,0
2018-08-22T03:02:09.937Z,0
2018-08-22T03:03:20.015Z,0
2018-08-22T03:35:36.683Z,0
2018-08-22T03:36:46.760Z,0
2018-08-22T03:37:56.842Z,0
2018-08-22T03:39:06.906Z,0
2018-08-22T03:40:16.712Z,0
2018-08-22T03:41:26.533Z,0
2018-08-22T03:42:36.618Z,0
2018-08-22T03:43:46.703Z,0
2018-08-22T03:44:56.786Z,0
2018-08-22T03:46:06.866Z,0
2018-08-22T03:47:16.996Z,0
2018-08-22T03:48:27.074Z,0
2018-08-22T03:49:36.885Z,0
2018-08-22T03:50:46.965Z,0
2018-08-22T03:51:56.786Z,0
2018-08-22T03:53:06.655Z,0
2018-08-22T03:54:16.476Z,0
2018-08-22T03:55:26.561Z,0
2018-08-22T03:56:36.634Z,0
2018-08-22T03:57:46.718Z,0
2018-08-22T03:58:56.270Z,5
2018-08-22T04:00:06.369Z,5
2018-08-22T04:01:16.455Z,5
2018-08-22T04:02:26.514Z,5
2018-08-22T04:03:36.319Z,5
2018-08-22T04:04:46.408Z,5
2018-08-22T04:05:56.480Z,5
2018-08-22T04:07:06.026Z,10
2018-08-22T04:08:15.851Z,10
2018-08-22T04:09:25.938Z,10
2018-08-22T04:10:35.808Z,10
2018-08-22T04:11:45.880Z,15
2018-08-22T04:12:55.944Z,15
2018-08-22T04:14:06.020Z,15
2018-08-22T04:15:15.848Z,15
2018-08-22T04:16:25.936Z,20
2018-08-22T04:17:36.024Z,20
2018-08-22T04:18:46.168Z,20
2018-08-22T04:19:56.250Z,25
2018-08-22T04:21:05.831Z,25
2018-08-22T04:22:15.647Z,30
2018-08-22T04:23:25.481Z,30
2018-08-22T04:24:35.298Z,40
2018-08-22T04:25:45.141Z,40
2018-08-22T04:26:54.953Z,35
2018-08-22T04:28:05.569Z,40
2018-08-22T04:29:15.643Z,40
2018-08-22T04:30:25.711Z,35
2018-08-22T04:31:35.807Z,35
2018-08-22T04:32:45.910Z,40
2018-08-22T04:33:56.005Z,40
2018-08-22T04:35:05.860Z,45
2018-08-22T04:36:15.664Z,45
2018-08-22T04:37:25.940Z,45
2018-08-22T04:38:35.824Z,80
2018-08-22T04:39:45.962Z,90
2018-08-22T04:40:56.058Z,100
2018-08-22T04:42:06.132Z,110
2018-08-22T04:43:15.993Z,115
2018-08-22T04:44:26.072Z,120
2018-08-22T04:45:35.891Z,115
2018-08-22T04:46:45.980Z,120
2018-08-22T04:47:56.081Z,135
2018-08-22T04:49:06.165Z,140
2018-08-22T04:50:16.242Z,145
2018-08-22T04:51:26.399Z,150
2018-08-22T04:52:36.217Z,155
2018-08-22T04:53:46.040Z,155
2018-08-22T04:54:55.867Z,170
2018-08-22T04:56:05.978Z,175
2018-08-22T04:57:16.127Z,180
2018-08-22T04:58:25.964Z,185
2018-08-22T04:59:36.041Z,190
2018-08-22T05:00:46.188Z,195
2018-08-22T05:01:56.263Z,205
2018-08-22T05:03:06.346Z,200
2018-08-22T05:04:16.415Z,210
2018-08-22T05:05:26.511Z,220
2018-08-22T05:06:36.596Z,215
2018-08-22T05:07:46.690Z,210
2018-08-22T05:08:56.830Z,210
2018-08-22T05:10:06.935Z,215
2018-08-22T05:11:16.750Z,215
2018-08-22T05:12:26.835Z,215
2018-08-22T05:13:36.897Z,220
2018-08-22T05:14:47.036Z,220
2018-08-22T05:15:57.127Z,220
2018-08-22T05:17:07.219Z,215
2018-08-22T05:18:17.314Z,220
2018-08-22T05:19:27.404Z,220
2018-08-22T05:20:37.542Z,225
2018-08-22T05:21:47.641Z,225
2018-08-22T05:22:57.750Z,235
2018-08-22T05:24:07.575Z,240
2018-08-22T05:25:17.659Z,240
2018-08-22T05:26:27.843Z,235
2018-08-22T05:27:37.922Z,235
2018-08-22T05:28:48.026Z,235
2018-08-22T05:29:58.157Z,235
2018-08-22T05:31:08.071Z,235
2018-08-22T05:32:18.208Z,235
2018-08-22T05:33:28.309Z,240
2018-08-22T05:34:38.408Z,235
2018-08-22T05:35:48.503Z,235
2018-08-22T05:36:58.575Z,240
2018-08-22T05:38:08.760Z,245
2018-08-22T05:39:18.840Z,240
2018-08-22T05:40:28.933Z,240
2018-08-22T05:41:39.028Z,240
2018-08-22T05:42:48.858Z,240
2018-08-22T05:43:58.944Z,235
2018-08-22T05:45:09.044Z,205
2018-08-22T05:46:19.115Z,150
2018-08-22T05:47:28.670Z,125
2018-08-22T05:48:38.735Z,125
2018-08-22T05:49:48.886Z,130
2018-08-22T05:50:58.952Z,175
2018-08-22T05:52:08.779Z,200
2018-08-22T05:53:18.858Z,155
2018-08-22T05:54:28.424Z,125
2018-08-22T05:55:38.601Z,125
2018-08-22T05:56:48.686Z,125
2018-08-22T05:57:58.840Z,125
2018-08-22T05:59:08.427Z,140
2018-08-22T06:00:18.494Z,180
2018-08-22T06:01:28.583Z,185
2018-08-22T06:02:38.673Z,155
2018-08-22T06:03:48.505Z,135
2018-08-22T06:04:58.313Z,130
2018-08-22T06:06:08.171Z,135
2018-08-22T06:07:18.268Z,150
2018-08-22T06:08:28.349Z,170
2018-08-22T06:09:38.478Z,175
2018-08-22T06:10:48.768Z,170
2018-08-22T06:11:58.841Z,150
2018-08-22T06:13:08.676Z,140
2018-08-22T06:14:18.771Z,135
2018-08-22T06:15:28.588Z,140
2018-08-22T06:16:38.671Z,140
2018-08-22T06:17:48.765Z,140
2018-08-22T06:18:58.884Z,140
2018-08-22T06:20:08.977Z,140
2018-08-22T06:21:19.055Z,140
2018-08-22T06:22:29.134Z,140
2018-08-22T06:23:39.219Z,140
2018-08-22T06:24:49.027Z,140
2018-08-22T06:25:59.103Z,140
2018-08-22T06:27:08.932Z,140
2018-08-22T06:28:19.006Z,145
2018-08-22T06:29:28.819Z,145
2018-08-22T06:30:38.944Z,145
2018-08-22T06:31:49.023Z,145
2018-08-22T06:32:59.079Z,145
2018-08-22T06:34:08.557Z,145
2018-08-22T06:35:18.370Z,145
2018-08-22T06:36:29.051Z,145
2018-08-22T06:37:39.339Z,145
2018-08-22T06:38:49.425Z,145
2018-08-22T06:39:59.247Z,145
2018-08-22T06:41:09.097Z,145
2018-08-22T06:42:19.194Z,145
2018-08-22T06:43:29.282Z,145
2018-08-22T06:44:39.359Z,145
2018-08-22T06:45:49.443Z,145
2018-08-22T06:46:59.266Z,145
2018-08-22T06:48:09.379Z,145
2018-08-22T06:49:19.204Z,145
2018-08-22T06:50:29.485Z,150
2018-08-22T06:51:39.566Z,150
2018-08-22T06:52:49.389Z,150
2018-08-22T06:53:59.468Z,150
2018-08-22T06:55:09.557Z,150
2018-08-22T06:56:19.403Z,150
2018-08-22T06:57:29.488Z,150
2018-08-22T06:58:39.586Z,155
2018-08-22T06:59:49.436Z,155
2018-08-22T07:00:59.300Z,155
2018-08-22T07:02:09.393Z,155
2018-08-22T07:03:19.506Z,155
2018-08-22T07:04:29.585Z,155
2018-08-22T07:05:39.418Z,155
2018-08-22T07:06:49.507Z,155
2018-08-22T07:07:59.535Z,155
2018-08-22T07:09:09.619Z,160
2018-08-22T07:10:19.444Z,160
2018-08-22T07:11:29.531Z,160
2018-08-22T07:12:39.406Z,160
2018-08-22T07:13:49.511Z,160
2018-08-22T07:14:59.617Z,160
2018-08-22T07:16:09.719Z,160
2018-08-22T07:17:19.786Z,160
2018-08-22T07:18:29.887Z,160
2018-08-22T07:19:39.722Z,160
2018-08-22T07:20:49.611Z,160
2018-08-22T07:21:59.767Z,165
2018-08-22T07:23:10.004Z,165
2018-08-22T07:24:19.845Z,165
2018-08-22T07:25:29.662Z,165
2018-08-22T07:26:39.744Z,165
2018-08-22T07:27:49.838Z,165
2018-08-22T07:28:59.925Z,165
2018-08-22T07:30:09.726Z,165
2018-08-22T07:31:19.555Z,165
2018-08-22T07:32:29.656Z,165
2018-08-22T07:33:39.753Z,165
2018-08-22T07:34:49.856Z,170
2018-08-22T07:35:59.740Z,170
2018-08-22T07:37:09.920Z,170
2018-08-22T07:38:19.748Z,170
2018-08-22T07:39:29.844Z,170
2018-08-22T07:40:39.917Z,170
2018-08-22T07:41:49.583Z,170
2018-08-22T07:42:59.668Z,170
2018-08-22T07:44:09.740Z,170
2018-08-22T07:45:19.293Z,170
2018-08-22T07:46:29.169Z,170
2018-08-22T07:47:39.262Z,170
2018-08-22T07:48:49.350Z,170
2018-08-22T07:49:59.440Z,170
2018-08-22T07:51:09.275Z,170
2018-08-22T07:52:19.128Z,170
2018-08-22T07:53:29.635Z,170
2018-08-22T07:54:39.840Z,170
2018-08-22T07:55:49.655Z,170
2018-08-22T07:56:59.833Z,170
2018-08-22T07:58:09.396Z,175
2018-08-22T07:59:19.528Z,170
2018-08-22T08:00:29.605Z,170
2018-08-22T08:01:39.713Z,175
2018-08-22T08:02:49.587Z,175
2018-08-22T08:03:59.678Z,175
2018-08-22T08:05:10.014Z,175
2018-08-22T08:06:20.100Z,175
2018-08-22T08:07:30.196Z,175
2018-08-22T08:08:40.665Z,170
2018-08-22T08:09:50.755Z,170
2018-08-22T08:11:01.167Z,175
2018-08-22T08:12:11.119Z,175
2018-08-22T08:13:20.967Z,170
2018-08-22T08:14:31.045Z,165
2018-08-22T08:15:41.131Z,150
2018-08-22T08:16:51.298Z,150
2018-08-22T08:18:00.898Z,165
2018-08-22T08:19:10.995Z,175
2018-08-22T08:20:21.128Z,175
2018-08-22T08:21:31.223Z,180
2018-08-22T08:22:41.373Z,180
2018-08-22T08:23:51.459Z,180
2018-08-22T08:25:01.287Z,175
2018-08-22T08:26:11.849Z,175
2018-08-22T08:27:21.762Z,175
2018-08-22T08:28:31.851Z,180
2018-08-22T08:29:41.937Z,180
2018-08-22T08:30:51.880Z,185
2018-08-22T08:32:01.731Z,180
2018-08-22T08:33:11.296Z,180
2018-08-22T08:34:21.389Z,180
2018-08-22T08:35:31.466Z,180
2018-08-22T08:36:41.561Z,180
2018-08-22T08:37:51.748Z,180
2018-08-22T08:39:01.886Z,180
2018-08-22T08:40:11.737Z,180
2018-08-22T08:41:21.904Z,180
2018-08-22T08:42:31.778Z,180
2018-08-22T08:43:41.912Z,180
2018-08-22T08:44:52.003Z,180
2018-08-22T08:46:02.143Z,180
2018-08-22T08:47:12.297Z,180
2018-08-22T08:48:22.425Z,185
2018-08-22T08:49:33.022Z,185
2018-08-22T08:50:42.988Z,185
2018-08-22T08:51:53.109Z,185
2018-08-22T08:53:02.965Z,185
2018-08-22T08:54:12.774Z,185
2018-08-22T08:55:22.611Z,185
2018-08-22T08:56:32.172Z,185
2018-08-22T08:57:42.307Z,185
2018-08-22T08:58:52.433Z,185
2018-08-22T09:00:02.440Z,185
2018-08-22T09:01:12.574Z,185
2018-08-22T09:02:22.659Z,185
2018-08-22T09:03:32.827Z,185
2018-08-22T09:04:42.989Z,185
2018-08-22T09:05:52.564Z,185
2018-08-22T09:07:02.797Z,185
2018-08-22T09:08:12.640Z,190
2018-08-22T09:09:22.512Z,185
2018-08-22T09:10:32.610Z,185
2018-08-22T09:11:42.707Z,185
2018-08-22T09:12:52.794Z,190
2018-08-22T09:14:02.733Z,190
2018-08-22T09:15:12.824Z,190
2018-08-22T09:16:22.658Z,190
2018-08-22T09:17:33.073Z,190
2018-08-22T09:18:43.175Z,190
2018-08-22T09:19:53.310Z,190
2018-08-22T09:21:03.604Z,190
2018-08-22T09:22:13.484Z,190
2018-08-22T09:23:23.607Z,190
2018-08-22T09:24:33.830Z,190
2018-08-22T09:25:43.920Z,190
2018-08-22T09:26:54.019Z,190
2018-08-22T09:28:04.273Z,190
2018-08-22T09:29:14.094Z,190
2018-08-22T09:30:24.175Z,195
2018-08-22T09:31:34.098Z,190
2018-08-22T09:32:44.177Z,195
2018-08-22T09:33:54.539Z,200
2018-08-22T09:35:04.641Z,195
2018-08-22T09:36:14.727Z,195
2018-08-22T09:37:24.813Z,195
2018-08-22T09:38:34.683Z,190
2018-08-22T09:39:44.981Z,195
2018-08-22T09:40:55.111Z,195
2018-08-22T09:42:05.654Z,195
2018-08-22T09:43:15.912Z,195
2018-08-22T09:44:26.197Z,195
2018-08-22T09:45:36.048Z,195
2018-08-22T09:46:46.563Z,195
2018-08-22T09:47:56.748Z,195
2018-08-22T09:49:06.555Z,195
2018-08-22T09:50:16.487Z,195
2018-08-22T09:51:26.770Z,195
2018-08-22T09:52:36.870Z,195
2018-08-22T09:53:46.742Z,195
2018-08-22T09:54:56.560Z,195
2018-08-22T09:56:06.640Z,195
2018-08-22T09:57:16.452Z,195
2018-08-22T09:58:26.829Z,195
2018-08-22T09:59:36.990Z,195
2018-08-22T10:00:47.467Z,195
2018-08-22T10:01:57.604Z,195
2018-08-22T10:03:07.726Z,195
2018-08-22T10:04:17.640Z,195
2018-08-22T10:05:27.503Z,200
2018-08-22T10:06:38.469Z,200
2018-08-22T10:07:48.652Z,200
2018-08-22T10:08:58.472Z,200
2018-08-22T10:10:09.177Z,200
2018-08-22T10:11:19.325Z,200
2018-08-22T10:12:29.408Z,200
2018-08-22T10:13:39.243Z,205
2018-08-22T10:14:49.462Z,200
2018-08-22T10:15:59.553Z,205
2018-08-22T10:17:09.128Z,200
2018-08-22T10:18:18.943Z,200
2018-08-22T10:19:29.069Z,200
2018-08-22T10:20:39.170Z,200
2018-08-22T10:21:48.988Z,200
2018-08-22T10:22:58.531Z,200
2018-08-22T10:24:08.639Z,200
2018-08-22T10:25:18.466Z,200
2018-08-22T10:26:28.645Z,200
2018-08-22T10:27:38.738Z,200
2018-08-22T10:28:48.850Z,195
2018-08-22T10:29:58.932Z,195
2018-08-22T10:31:09.039Z,195
2018-08-22T10:32:19.129Z,200
2018-08-22T10:33:28.961Z,200
2018-08-22T10:34:39.099Z,200
2018-08-22T10:35:48.666Z,200
2018-08-22T10:36:58.479Z,200
2018-08-22T10:38:08.566Z,200
2018-08-22T10:39:18.644Z,200
2018-08-22T10:40:28.788Z,205
2018-08-22T10:41:38.396Z,200
2018-08-22T10:42:48.511Z,200
2018-08-22T10:43:58.598Z,200
2018-08-22T10:45:08.427Z,200
2018-08-22T10:46:18.530Z,200
2018-08-22T10:47:28.639Z,200
2018-08-22T10:48:38.481Z,205
2018-08-22T10:49:48.563Z,200
2018-08-22T10:50:58.716Z,205
2018-08-22T10:52:08.672Z,210
2018-08-22T10:53:18.770Z,205
2018-08-22T10:54:28.883Z,205
2018-08-22T10:55:38.969Z,205
2018-08-22T10:56:49.081Z,205
2018-08-22T10:57:59.161Z,205
2018-08-22T10:59:09.250Z,205
2018-08-22T11:00:19.327Z,205
2018-08-22T11:01:29.413Z,205
2018-08-22T11:02:39.505Z,205
2018-08-22T11:03:49.325Z,205
2018-08-22T11:04:58.907Z,205
2018-08-22T11:06:09.006Z,205
2018-08-22T11:07:19.095Z,210
2018-08-22T11:08:29.162Z,205
2018-08-22T11:09:39.011Z,210
2018-08-22T11:10:48.830Z,210
2018-08-22T11:11:58.922Z,210
2018-08-22T11:13:09.024Z,210
2018-08-22T11:14:18.857Z,210
2018-08-22T11:15:28.958Z,210
2018-08-22T11:16:39.074Z,210
2018-08-22T11:17:49.188Z,210
2018-08-22T11:18:58.746Z,210
2018-08-22T11:20:08.872Z,215
2018-08-22T11:21:18.491Z,215
2018-08-22T11:22:28.857Z,215
2018-08-22T11:23:38.950Z,215
2018-08-22T11:24:49.060Z,220
2018-08-22T11:25:59.159Z,215
2018-08-22T11:27:09.310Z,215
2018-08-22T11:28:19.405Z,215
2018-08-22T11:29:29.228Z,215
2018-08-22T11:30:38.788Z,215
2018-08-22T11:31:48.900Z,215
2018-08-22T11:32:59.040Z,215
2018-08-22T11:34:09.141Z,215
2018-08-22T11:35:18.963Z,215
2018-08-22T11:36:28.798Z,215
2018-08-22T11:37:38.885Z,215
2018-08-22T11:38:48.731Z,215
2018-08-22T11:39:58.835Z,215
2018-08-22T11:41:08.680Z,215
2018-08-22T11:42:18.776Z,215
2018-08-22T11:43:29.129Z,215
2018-08-22T11:44:38.964Z,215
2018-08-22T11:45:49.053Z,215
2018-08-22T11:46:59.471Z,215
2018-08-22T11:48:09.546Z,215
2018-08-22T11:49:19.378Z,215
2018-08-22T11:50:29.532Z,215
2018-08-22T11:51:39.358Z,220
2018-08-22T11:52:49.201Z,220
2018-08-22T11:53:59.290Z,220
2018-08-22T11:55:09.385Z,220
2018-08-22T11:56:19.432Z,220
2018-08-22T11:57:29.535Z,220
2018-08-22T11:58:39.623Z,225
2018-08-22T11:59:49.747Z,225
2018-08-22T12:00:59.851Z,215
2018-08-22T12:02:10.333Z,220
2018-08-22T12:03:20.434Z,215
2018-08-22T12:04:30.510Z,215
2018-08-22T12:05:40.591Z,215
2018-08-22T12:06:50.690Z,215
2018-08-22T12:08:00.798Z,215
2018-08-22T12:09:10.897Z,215
2018-08-22T12:10:20.724Z,220
2018-08-22T12:11:30.831Z,220
2018-08-22T12:12:40.712Z,220
2018-08-22T12:13:50.910Z,220
2018-08-22T12:15:01.012Z,220
2018-08-22T12:16:11.474Z,225
2018-08-22T12:17:21.661Z,220
2018-08-22T12:18:31.757Z,220
2018-08-22T12:19:41.889Z,220
2018-08-22T12:20:51.981Z,215
2018-08-22T12:22:01.820Z,220
2018-08-22T12:23:12.619Z,220
2018-08-22T12:24:22.771Z,215
2018-08-22T12:25:32.862Z,215
2018-08-22T12:26:42.953Z,215
2018-08-22T12:27:53.043Z,215
2018-08-22T12:29:03.248Z,215
2018-08-22T12:30:13.100Z,215
2018-08-22T12:31:23.469Z,215
2018-08-22T12:32:33.552Z,215
2018-08-22T12:33:43.381Z,215
2018-08-22T12:34:53.503Z,215
2018-08-22T12:36:03.592Z,215
2018-08-22T12:37:13.668Z,215
2018-08-22T12:38:23.497Z,210
2018-08-22T12:39:33.590Z,210
2018-08-22T12:40:43.700Z,210
2018-08-22T12:41:53.786Z,210
2018-08-22T12:43:03.888Z,210
2018-08-22T12:44:13.725Z,210
2018-08-22T12:45:23.569Z,210
2018-08-22T12:46:33.142Z,210
2018-08-22T12:47:42.959Z,210
2018-08-22T12:48:53.036Z,210
2018-08-22T12:50:03.117Z,210
2018-08-22T12:51:12.936Z,205
2018-08-22T12:52:22.505Z,205
2018-08-22T12:53:32.598Z,205
2018-08-22T12:54:42.689Z,205
2018-08-22T12:55:52.794Z,205
2018-08-22T12:57:02.471Z,205
2018-08-22T12:58:12.568Z,205
2018-08-22T12:59:22.685Z,205
2018-08-22T13:00:32.770Z,205
2018-08-22T13:01:42.613Z,205
2018-08-22T13:02:52.518Z,205
2018-08-22T13:04:02.328Z,205
2018-08-22T13:05:12.455Z,205
2018-08-22T13:06:22.548Z,205
2018-08-22T13:07:32.672Z,210
2018-08-22T13:08:42.756Z,205
2018-08-22T13:09:52.841Z,205
2018-08-22T13:11:03.051Z,200
2018-08-22T13:12:13.155Z,200
2018-08-22T13:13:23.220Z,200
2018-08-22T13:14:33.359Z,200
2018-08-22T13:15:43.452Z,200
2018-08-22T13:16:53.330Z,200
2018-08-22T13:18:03.194Z,200
2018-08-22T13:19:13.025Z,200
2018-08-22T13:20:23.130Z,200
2018-08-22T13:21:33.253Z,195
2018-08-22T13:22:43.355Z,195
2018-08-22T13:23:53.202Z,195
2018-08-22T13:25:03.293Z,195
2018-08-22T13:26:13.409Z,195
2018-08-22T13:27:23.238Z,195
2018-08-22T13:28:33.053Z,195
2018-08-22T13:29:43.166Z,195
2018-08-22T13:30:53.275Z,195
2018-08-22T13:32:03.158Z,195
2018-08-22T13:33:12.991Z,195
2018-08-22T13:34:22.808Z,195
2018-08-22T13:35:32.900Z,195
2018-08-22T13:36:42.730Z,190
2018-08-22T13:37:52.813Z,190
2018-08-22T13:39:03.170Z,190
2018-08-22T13:40:13.368Z,190
2018-08-22T13:41:23.292Z,190
2018-08-22T13:42:32.871Z,190
2018-08-22T13:43:42.967Z,190
2018-08-22T13:44:52.546Z,190
2018-08-22T13:46:02.786Z,190
2018-08-22T13:47:12.881Z,190
2018-08-22T13:48:22.994Z,190
2018-08-22T13:49:32.880Z,190
2018-08-22T13:50:43.076Z,190
2018-08-22T13:51:53.196Z,190
2018-08-22T13:53:03.291Z,190
2018-08-22T13:54:13.137Z,190
2018-08-22T13:55:23.239Z,190
2018-08-22T13:56:33.527Z,185
2018-08-22T13:57:43.596Z,185
2018-08-22T13:58:53.680Z,185
2018-08-22T14:00:03.772Z,185
2018-08-22T14:01:13.886Z,185
2018-08-22T14:02:23.727Z,185
2018-08-22T14:03:33.829Z,185
2018-08-22T14:04:44.036Z,180
2018-08-22T14:05:54.162Z,180
2018-08-22T14:07:04.259Z,180
2018-08-22T14:08:14.074Z,180
2018-08-22T14:09:24.192Z,180
2018-08-22T14:10:33.768Z,180
2018-08-22T14:11:43.617Z,180
2018-08-22T14:12:53.770Z,180
2018-08-22T14:14:03.874Z,180
2018-08-22T14:15:13.989Z,175
2018-08-22T14:16:24.075Z,175
2018-08-22T14:17:34.195Z,175
2018-08-22T14:18:43.774Z,175
2018-08-22T14:19:53.880Z,175
2018-08-22T14:21:03.965Z,175
2018-08-22T14:22:14.055Z,175
2018-08-22T14:23:24.131Z,175
2018-08-22T14:24:34.203Z,170
2018-08-22T14:25:44.300Z,170
2018-08-22T14:26:54.404Z,170
2018-08-22T14:28:04.529Z,170
2018-08-22T14:29:14.692Z,170
2018-08-22T14:30:24.842Z,170
2018-08-22T14:31:35.029Z,170
2018-08-22T14:32:44.891Z,170
2018-08-22T14:33:55.162Z,170
2018-08-22T14:35:05.305Z,165
2018-08-22T14:36:15.408Z,165
2018-08-22T14:37:25.247Z,165
2018-08-22T14:38:35.345Z,165
2018-08-22T14:39:45.189Z,165
2018-08-22T14:40:55.282Z,160
2018-08-22T14:42:05.373Z,160
2018-08-22T14:43:15.201Z,160
2018-08-22T14:44:25.301Z,160
2018-08-22T14:45:35.401Z,160
2018-08-22T14:46:45.610Z,160
2018-08-22T14:47:55.708Z,160
2018-08-22T14:49:05.804Z,160
2018-08-22T14:50:15.886Z,155
2018-08-22T14:51:26.003Z,155
2018-08-22T14:52:36.085Z,155
2018-08-22T14:53:46.435Z,155
2018-08-22T14:54:56.516Z,155
2018-08-22T14:56:06.722Z,155
2018-08-22T14:57:16.600Z,155
2018-08-22T14:58:26.756Z,150
2018-08-22T14:59:36.866Z,150
2018-08-22T15:00:46.736Z,150
2018-08-22T15:01:56.824Z,150
2018-08-22T15:03:09.533Z,150
2018-08-22T15:04:19.824Z,150
2018-08-22T15:05:29.915Z,145
2018-08-22T15:06:40.021Z,145
2018-08-22T15:07:49.864Z,145
2018-08-22T15:08:59.695Z,145
2018-08-22T15:10:09.791Z,145
2018-08-22T15:11:19.615Z,145
2018-08-22T15:12:29.731Z,145
2018-08-22T15:13:39.839Z,140
2018-08-22T15:14:49.425Z,140
2018-08-22T15:15:59.524Z,140
2018-08-22T15:17:09.633Z,140
2018-08-22T15:18:19.857Z,140
2018-08-22T15:19:30.397Z,140
2018-08-22T15:20:40.506Z,140
2018-08-22T15:21:50.825Z,140
2018-08-22T15:23:00.938Z,140
2018-08-22T15:24:11.019Z,140
2018-08-22T15:25:20.862Z,140
2018-08-22T15:26:30.828Z,140
2018-08-22T15:27:40.975Z,140
2018-08-22T15:28:51.049Z,135
2018-08-22T15:30:01.544Z,135
2018-08-22T15:31:11.528Z,135
2018-08-22T15:32:21.370Z,135
2018-08-22T15:33:31.475Z,135
2018-08-22T15:34:41.316Z,130
2018-08-22T15:35:51.399Z,130
2018-08-22T15:39:59.138Z,130
2018-08-22T15:41:09.787Z,130
2018-08-22T15:42:19.666Z,125
2018-08-22T15:43:29.749Z,125
2018-08-22T15:44:39.868Z,125
2018-08-22T15:45:49.791Z,125
2018-08-22T15:46:59.655Z,125
2018-08-22T15:48:09.742Z,125
2018-08-22T15:49:19.843Z,120
2018-08-22T15:50:29.688Z,120
2018-08-22T15:51:39.828Z,120
2018-08-22T15:52:50.069Z,120
2018-08-22T15:54:00.033Z,120
2018-08-22T15:55:10.145Z,115
2018-08-22T15:56:20.273Z,115
2018-08-22T15:57:30.375Z,115
2018-08-22T15:58:40.456Z,115
2018-08-22T15:59:50.312Z,115
2018-08-22T16:01:00.432Z,110
2018-08-22T16:02:10.597Z,110
2018-08-22T16:03:20.484Z,110
2018-08-22T16:04:30.638Z,110
2018-08-22T16:05:40.758Z,105
2018-08-22T16:06:50.872Z,105
2018-08-22T16:08:00.980Z,105
2018-08-22T16:09:11.104Z,105
2018-08-22T16:10:20.947Z,100
2018-08-22T16:11:31.042Z,100
2018-08-22T16:12:40.888Z,100
2018-08-22T16:13:51.002Z,100
2018-08-22T16:15:01.131Z,100
2018-08-22T16:16:12.048Z,95
2018-08-22T16:17:22.157Z,95
2018-08-22T16:18:32.292Z,95
2018-08-22T16:19:42.173Z,95
2018-08-22T16:20:52.346Z,95
2018-08-22T16:22:02.479Z,95
2018-08-22T16:23:12.647Z,95
2018-08-22T16:24:22.984Z,95
2018-08-22T16:25:33.092Z,95
2018-08-22T16:28:08.225Z,90
2018-08-22T16:29:18.365Z,90
2018-08-22T16:30:28.252Z,85
2018-08-22T16:31:38.357Z,85
2018-08-22T16:32:48.229Z,85
2018-08-22T16:33:58.325Z,80
2018-08-22T16:35:08.446Z,80
2018-08-22T16:36:18.539Z,80
2018-08-22T16:37:28.692Z,80
2018-08-22T16:38:38.806Z,75
2018-08-22T16:39:48.914Z,75
2018-08-22T16:40:59.047Z,75
2018-08-22T16:42:09.191Z,70
2018-08-22T16:43:19.305Z,70
2018-08-22T16:44:29.404Z,70
2018-08-22T16:45:39.547Z,70
2018-08-22T16:46:49.760Z,65
2018-08-22T16:47:59.852Z,65
2018-08-22T16:49:10.563Z,65
2018-08-22T16:50:20.649Z,65
2018-08-22T16:51:30.770Z,65
2018-08-22T16:52:40.880Z,65
2018-08-22T16:53:50.992Z,65
2018-08-22T16:55:01.072Z,65
2018-08-22T16:56:11.188Z,60
2018-08-22T16:57:21.310Z,60